Departure ICAO
Arrival ICAO

The revolutionary moving map for travelling passengers has finally arrived
More information here

LFMD Cannes Mandelieu - EGKB London Biggin Hill


Distance 545 NM


LFMN Nice Cote D'Azur VFR CAVOK

METAR LFMN 162000Z 30013KT CAVOK 20/15 Q1010 TEMPO 24010KT

TAF LFMN 161400Z 1615/1721 34010KT 9999 SHRA FEW040CB BKN100 PROB40 TEMPO 1615/1618 VRB15G30KT 4000 TSRA SCT040CB BECMG 1618/1620 VRB03KT NSC BECMG 1622/1624 35010KT BECMG 1707/1709 18010KT


LFMD Cannes Mandelieu VFR CAVOK

METAR LFMD 162000Z AUTO 34003KT 290V050 CAVOK 17/16 Q1010 BECMG SHRA

TAF LFMD 161400Z 1615/1715 36010KT 9999 SHRA FEW040CB BKN100 TEMPO 1615/1618 TSRA BECMG 1618/1620 VRB03KT NSC BECMG 1622/1624 35010KT BECMG 1707/1709 18010KT


LFLB Chambery Aix Les Bains VFR

METAR LFLB 162000Z AUTO 35008KT 300V040 9999 FEW088 27/10 Q1012

TAF AMD LFLB 161403Z 1614/1712 35008KT CAVOK PROB40 TEMPO 1614/1618 VRB20G30KT 3500 TSRA BKN040CB PROB40 TEMPO 1618/1622 FEW040CB BKN090 TEMPO 1701/1707 VRB02KT BKN070 PROB40 TEMPO 1710/1712 FEW050CB BKN090


LFLS Grenoble Saint Geoirs VFR CAVOK

METAR LFLS 162000Z AUTO 32010KT CAVOK 23/12 Q1014

TAF LFLS 161400Z 1615/1715 34010KT CAVOK PROB40 TEMPO 1615/1617 VRB15G30KT 3000 TSRA BKN030CB PROB40 TEMPO 1617/1622 FEW030CB BKN070 TEMPO 1622/1706 VRB02KT BKN070


LFLL Lyon Saint Exupery VFR

METAR LFLL 162000Z 32012KT 9999 FEW066TCU BKN260 24/13 Q1013 NOSIG

TAF AMD LFLL 161730Z 1618/1724 35010KT CAVOK TEMPO 1618/1622 FEW060CB


LFLY Lyon Bron VFR CAVOK

METAR LFLY 162000Z AUTO 31012KT CAVOK 25/12 Q1013 TEMPO FEW070TCU

TAF LFLY 161700Z 1618/1718 35012KT CAVOK TEMPO 1618/1623 FEW070TCU BECMG 1623/1702 VRB02KT BECMG 1710/1713 01010KT


LFLN Saint Yan VFR CAVOK CB

METAR LFLN 162000Z AUTO 31003KT 250V360 CAVOK 20/14 Q1015 TEMPO 30013G25KT 2500 -TSRA SCT050CB

TAF LFLN 161700Z 1618/1703 25008KT 9999 FEW060TCU TEMPO 1618/1621 4000 -SHRA PROB30 TEMPO 1618/1621 30013G25KT 2500 -TSRA SCT050CB BECMG 1621/1623 CAVOK


LFPM Melun Villaroche VFR CAVOK

METAR LFPM 162000Z AUTO 30006KT CAVOK 25/12 Q1013


LFPO Paris Orly VFR CAVOK

METAR LFPO 162000Z 34007KT 320V080 CAVOK 26/11 Q1014 NOSIG

TAF LFPO 161700Z 1618/1724 34008KT CAVOK PROB30 TEMPO 1618/1620 9999 -SHRA SCT060TCU


LFPG Paris Charles De Gaulle VFR CAVOK

METAR LFPG 162000Z 36007KT CAVOK 24/10 Q1014 NOSIG

TAF LFPG 161700Z 1618/1724 30006KT CAVOK TX29/1618Z TN18/1703Z PROB30 TEMPO 1618/1620 FEW050CB


LFPV Villacoublay Velizy VFR CAVOK

METAR LFPV 162000Z AUTO 34005KT CAVOK 24/11 Q1014

TAF LFPV 161400Z 1615/1715 35005KT CAVOK TEMPO 1615/1619 SCT050TCU PROB40 TEMPO 1615/1618 4000 -SHRA SCT050CB


LFPN Toussous Le Noble VFR CAVOK

METAR LFPN 162000Z AUTO 35004KT CAVOK 23/11 Q1014 NOSIG

TAF LFPN 161700Z 1618/1703 34008KT CAVOK TEMPO 1618/1620 9999 -SHRA SCT060TCU


LFPT Pontoise Cormeilles En Vexin VFR CAVOK

METAR LFPT 162000Z AUTO 36007KT CAVOK 21/10 Q1014


LFOB Beauvais Tille VFR CAVOK

METAR LFOB 162000Z AUTO 31007KT CAVOK 20/10 Q1014 NOSIG

TAF LFOB 161700Z 1618/1718 33007KT CAVOK PROB30 1703/1706 BKN008


LFAT Le Tourquet Paris Plage VFR CAVOK

METAR LFAT 162000Z AUTO 23003KT 190V270 CAVOK 19/14 Q1014

TAF LFAT 161400Z 1615/1624 28008KT CAVOK BECMG 1622/1624 BKN005


EGMD Lydd VFR

METAR EGMD 161950Z AUTO 23011KT 9999 NCD 21/14 Q1013

TAF EGMD 161702Z 1618/1703 24012KT 9999 FEW035


EGKA Shoreham By Sea Shoreham VFR CAVOK

METAR EGKA 161850Z 23014KT CAVOK 22/15 Q1013

TAF EGKA 161402Z 1615/1619 23012KT 9999 FEW045


EGKB London Biggin Hill VFR CAVOK

METAR EGKB 161950Z 21007KT CAVOK 23/09 Q1013

TAF EGKB 161702Z 1618/1622 25006KT 9999 FEW045


EGKK London Gatwick VFR CAVOK

METAR EGKK 161950Z 24007KT CAVOK 23/11 Q1013

TAF EGKK 161652Z 1618/1724 24008KT CAVOK


EGLC London City VFR

METAR EGLC 161950Z AUTO 23009KT 9999 NCD 26/09 Q1012

TAF EGLC 161702Z 1618/1621 26008KT 9999 FEW045


EGSS London Stansted VFR

METAR EGSS 161950Z AUTO 26005KT 9999 NCD 24/11 Q1012

TAF EGSS 161656Z 1618/1724 27007KT 9999 FEW045


EGLL London Heathrow VFR

METAR EGLL 161950Z AUTO 28012KT 9999 NCD 23/14 Q1012 NOSIG

TAF EGLL 161701Z 1618/1724 26006KT CAVOK


EGWU Northolt VFR CAVOK

METAR EGWU 161950Z 30013KT CAVOK 23/14 Q1012 NOSIG

TAF EGWU 161640Z 1618/1712 26010KT CAVOK PROB30 TEMPO 1701/1705 SCT020


EGLF London Farnborough VFR CAVOK

METAR EGLF 161850Z 23013KT CAVOK 24/11 Q1012

TAF EGLF 161702Z 1618/1621 24009KT 9999 FEW045



NOTAMS LFMD

 NOTAMS EGKB